Terminal Aerodrome Forecast
Issued by NWS

Home | Current Version | Previous Version | Text Only | Print | Product List | Glossary On
Versions: 1 2 3 4 5 6 7 8 9 10 11 12 13 14 15 16 17 18 19 20 21 22 23 24 25
000
FTUS45 KTWC 290520
TAFOLS
TAF
KOLS 290520Z 2906/3006 20012G20KT P6SM BKN080
     FM291000 13008KT P6SM FEW080
     FM291600 28016G26KT P6SM SCT080
     FM300300 35006KT P6SM FEW080=

USA.gov is the U.S. government's official web portal to all federal, state and local government web resources and services.